Time;durP1;ratioP1;P1;durP2;ratioP2;P2;SDS_P1;SDS_P2;PMS_P1;PMS_P2;Temp;Humidity;BMP_temperature;BMP_pressure;BME280_temperature;BME280_humidity;BME280_pressure;Samples;Min_cycle;Max_cycle;Signal;HPM_P1;HPM_P2
2021/08/04 00:00:53;;;;;;;;;;;23.50;53.10;;;;;;492841;241;1057;-70
2021/08/04 00:02:55;;;;;;;;;;;23.50;53.10;;;;;;492869;241;1060;-70
2021/08/04 00:04:56;;;;;;;;;;;23.50;53.10;;;;;;492882;241;1064;-70
2021/08/04 00:06:57;;;;;;;;;;;23.50;53.10;;;;;;492821;241;1034;-70
2021/08/04 00:08:59;;;;;;;;;;;23.60;53.00;;;;;;492856;241;991;-70
2021/08/04 00:11:00;;;;;;;;;;;23.60;53.00;;;;;;492862;241;2124;-69
2021/08/04 00:13:01;;;;;;;;;;;23.60;52.90;;;;;;492840;241;976;-69
2021/08/04 00:15:03;;;;;;;;;;;23.60;52.90;;;;;;492924;241;938;-69
2021/08/04 00:17:04;;;;;;;;;;;23.50;53.00;;;;;;492769;241;1469;-70
2021/08/04 00:19:05;;;;;;;;;;;23.60;53.10;;;;;;492746;241;964;-69
2021/08/04 00:21:07;;;;;;;;;;;23.60;53.00;;;;;;492871;241;1131;-70
2021/08/04 00:23:08;;;;;;;;;;;23.60;53.00;;;;;;492828;241;1086;-70
2021/08/04 00:25:09;;;;;;;;;;;23.60;53.00;;;;;;492966;241;1194;-70
2021/08/04 00:27:11;;;;;;;;;;;23.50;53.00;;;;;;492843;241;985;-69
2021/08/04 00:29:12;;;;;;;;;;;23.50;53.00;;;;;;492803;241;962;-69
2021/08/04 00:31:13;;;;;;;;;;;23.60;53.10;;;;;;492894;241;2176;-69
2021/08/04 00:33:15;;;;;;;;;;;23.60;53.00;;;;;;492857;241;1203;-69
2021/08/04 00:35:16;;;;;;;;;;;23.50;53.10;;;;;;492921;241;952;-69
2021/08/04 00:37:17;;;;;;;;;;;23.50;53.20;;;;;;492862;241;1142;-69
2021/08/04 00:39:19;;;;;;;;;;;23.60;53.10;;;;;;492833;241;965;-70
2021/08/04 00:41:20;;;;;;;;;;;23.60;53.10;;;;;;492804;241;1274;-70
2021/08/04 00:43:21;;;;;;;;;;;23.90;52.70;;;;;;492760;241;1120;-69
2021/08/04 00:45:23;;;;;;;;;;;23.70;52.60;;;;;;492832;238;1187;-70
2021/08/04 00:47:24;;;;;;;;;;;23.70;52.90;;;;;;492794;241;1074;-70
2021/08/04 00:49:25;;;;;;;;;;;23.60;53.00;;;;;;492821;241;977;-70
2021/08/04 00:51:27;;;;;;;;;;;23.60;53.10;;;;;;492788;241;2117;-70
2021/08/04 00:53:28;;;;;;;;;;;23.60;53.20;;;;;;492815;241;1043;-70
2021/08/04 00:55:29;;;;;;;;;;;23.60;53.20;;;;;;492818;241;1251;-70
2021/08/04 00:57:31;;;;;;;;;;;23.60;53.20;;;;;;492752;241;1135;-70
2021/08/04 00:59:32;;;;;;;;;;;23.60;53.40;;;;;;492870;241;998;-70
2021/08/04 01:01:33;;;;;;;;;;;23.50;53.50;;;;;;492788;241;1060;-70
2021/08/04 01:03:35;;;;;;;;;;;23.60;53.40;;;;;;492894;241;934;-69
2021/08/04 01:05:36;;;;;;;;;;;23.60;53.40;;;;;;492850;241;1047;-70
2021/08/04 01:07:37;;;;;;;;;;;23.60;53.40;;;;;;492806;241;998;-70
2021/08/04 01:09:39;;;;;;;;;;;23.50;53.50;;;;;;492812;241;2163;-70
2021/08/04 01:11:40;;;;;;;;;;;23.60;53.50;;;;;;492898;241;1199;-70
2021/08/04 01:13:41;;;;;;;;;;;23.60;53.40;;;;;;492814;241;1143;-70
2021/08/04 01:15:43;;;;;;;;;;;23.60;53.40;;;;;;492850;241;1079;-70
2021/08/04 01:17:44;;;;;;;;;;;23.50;53.60;;;;;;492745;241;1143;-70
2021/08/04 01:19:45;;;;;;;;;;;23.50;53.50;;;;;;492768;241;961;-70
2021/08/04 01:21:47;;;;;;;;;;;23.50;53.70;;;;;;492807;241;1082;-69
2021/08/04 01:23:49;;;;;;;;;;;23.50;53.50;;;;;;492852;241;1009;-69
2021/08/04 01:25:51;;;;;;;;;;;23.50;53.60;;;;;;492889;241;1179;-69
2021/08/04 01:27:52;;;;;;;;;;;23.50;53.60;;;;;;492783;241;1022;-69
2021/08/04 01:29:53;;;;;;;;;;;23.40;53.70;;;;;;492864;241;2188;-70
2021/08/04 01:31:55;;;;;;;;;;;23.50;53.70;;;;;;492831;241;1095;-70
2021/08/04 01:33:56;;;;;;;;;;;23.50;53.70;;;;;;492775;241;1043;-70
2021/08/04 01:35:57;;;;;;;;;;;23.50;53.60;;;;;;492795;241;1215;-69
2021/08/04 01:37:59;;;;;;;;;;;23.50;53.60;;;;;;492805;241;1003;-70
2021/08/04 01:40:00;;;;;;;;;;;23.50;53.70;;;;;;492880;241;1046;-70
2021/08/04 01:42:01;;;;;;;;;;;23.50;53.60;;;;;;492888;241;1160;-70
2021/08/04 01:44:03;;;;;;;;;;;23.50;53.70;;;;;;492822;241;1118;-70
2021/08/04 01:46:04;;;;;;;;;;;23.50;53.60;;;;;;492797;241;1422;-70
2021/08/04 01:48:05;;;;;;;;;;;23.60;53.60;;;;;;492817;241;1268;-70
2021/08/04 01:50:07;;;;;;;;;;;23.50;53.50;;;;;;492897;241;2203;-70
2021/08/04 01:52:08;;;;;;;;;;;23.50;53.60;;;;;;492826;241;1036;-70
2021/08/04 01:54:09;;;;;;;;;;;23.50;53.70;;;;;;492818;241;1132;-70
2021/08/04 01:56:11;;;;;;;;;;;23.60;53.60;;;;;;492764;241;1182;-70
2021/08/04 01:58:12;;;;;;;;;;;23.50;53.70;;;;;;492764;241;1318;-70
2021/08/04 02:00:13;;;;;;;;;;;23.60;53.60;;;;;;492916;241;1111;-70
2021/08/04 02:02:15;;;;;;;;;;;23.50;53.70;;;;;;492828;241;1079;-70
2021/08/04 02:04:16;;;;;;;;;;;23.50;53.60;;;;;;492844;241;977;-70
2021/08/04 02:06:17;;;;;;;;;;;23.50;53.60;;;;;;492775;241;1125;-70
2021/08/04 02:08:19;;;;;;;;;;;23.60;53.60;;;;;;492795;241;996;-69
2021/08/04 02:10:20;;;;;;;;;;;23.50;53.60;;;;;;492817;241;2194;-70
2021/08/04 02:12:21;;;;;;;;;;;23.60;53.70;;;;;;492792;241;1259;-70
2021/08/04 02:14:23;;;;;;;;;;;23.50;53.70;;;;;;492889;241;1081;-70
2021/08/04 02:16:24;;;;;;;;;;;23.50;53.80;;;;;;492838;241;1266;-70
2021/08/04 02:18:25;;;;;;;;;;;23.50;53.70;;;;;;492866;241;957;-70
2021/08/04 02:20:27;;;;;;;;;;;23.50;53.70;;;;;;492897;241;1091;-70
2021/08/04 02:22:28;;;;;;;;;;;23.60;53.70;;;;;;492822;241;1096;-70
2021/08/04 02:24:29;;;;;;;;;;;23.50;53.70;;;;;;492870;241;986;-70
2021/08/04 02:26:31;;;;;;;;;;;23.50;53.70;;;;;;492826;241;1190;-70
2021/08/04 02:28:32;;;;;;;;;;;23.50;53.70;;;;;;492853;241;950;-69
2021/08/04 02:30:33;;;;;;;;;;;23.50;53.90;;;;;;492906;241;2124;-70
2021/08/04 02:32:35;;;;;;;;;;;23.50;53.80;;;;;;492829;241;960;-70
2021/08/04 02:34:36;;;;;;;;;;;23.60;53.80;;;;;;492853;241;964;-70
2021/08/04 02:36:37;;;;;;;;;;;23.60;53.70;;;;;;492807;241;1120;-69
2021/08/04 02:38:39;;;;;;;;;;;23.60;53.80;;;;;;492881;241;1034;-69
2021/08/04 02:40:40;;;;;;;;;;;23.50;53.80;;;;;;492860;241;1084;-69
2021/08/04 02:42:41;;;;;;;;;;;23.50;53.80;;;;;;492907;241;1209;-70
2021/08/04 02:44:43;;;;;;;;;;;23.50;53.70;;;;;;492924;241;935;-69
2021/08/04 02:46:44;;;;;;;;;;;23.50;53.80;;;;;;492838;241;989;-70
2021/08/04 02:48:45;;;;;;;;;;;23.50;53.80;;;;;;492929;241;1140;-70
2021/08/04 02:50:47;;;;;;;;;;;23.60;53.70;;;;;;492923;241;2175;-69
2021/08/04 02:52:48;;;;;;;;;;;23.50;53.90;;;;;;492936;241;1222;-69
2021/08/04 02:54:50;;;;;;;;;;;23.50;53.70;;;;;;492984;241;952;-69
2021/08/04 02:56:51;;;;;;;;;;;23.40;53.80;;;;;;492879;241;1192;-69
2021/08/04 02:58:52;;;;;;;;;;;23.50;53.70;;;;;;492852;241;1057;-69
2021/08/04 03:00:54;;;;;;;;;;;23.60;53.60;;;;;;492903;241;1067;-69
2021/08/04 03:02:55;;;;;;;;;;;23.60;53.60;;;;;;492844;241;1501;-69
2021/08/04 03:04:56;;;;;;;;;;;23.50;53.70;;;;;;492912;241;1110;-70
2021/08/04 03:06:58;;;;;;;;;;;23.40;53.80;;;;;;492872;241;1059;-70
2021/08/04 03:08:59;;;;;;;;;;;23.40;53.90;;;;;;492897;241;1008;-70
2021/08/04 03:11:00;;;;;;;;;;;23.30;54.10;;;;;;492892;241;2186;-70
2021/08/04 03:13:02;;;;;;;;;;;23.30;54.20;;;;;;492905;241;1188;-70
2021/08/04 03:15:03;;;;;;;;;;;23.30;54.20;;;;;;492895;241;1050;-70
2021/08/04 03:17:04;;;;;;;;;;;23.40;54.30;;;;;;492800;241;972;-69
2021/08/04 03:19:06;;;;;;;;;;;23.30;54.20;;;;;;492813;241;1021;-69
2021/08/04 03:21:07;;;;;;;;;;;23.30;54.10;;;;;;492829;241;946;-69
2021/08/04 03:23:08;;;;;;;;;;;23.40;54.20;;;;;;492777;241;1122;-70
2021/08/04 03:25:10;;;;;;;;;;;23.40;54.20;;;;;;492877;241;952;-70
2021/08/04 03:27:14;;;;;;;;;;;23.40;54.20;;;;;;492850;238;1296;-69
2021/08/04 03:29:15;;;;;;;;;;;23.30;54.20;;;;;;492811;241;958;-70
2021/08/04 03:31:16;;;;;;;;;;;23.30;54.20;;;;;;492800;241;2301;-70
2021/08/04 03:33:18;;;;;;;;;;;23.40;54.20;;;;;;492824;241;1074;-70
2021/08/04 03:35:19;;;;;;;;;;;23.40;54.10;;;;;;492852;241;996;-70
2021/08/04 03:37:20;;;;;;;;;;;23.30;54.10;;;;;;492798;241;1079;-70
2021/08/04 03:39:22;;;;;;;;;;;23.30;54.20;;;;;;492855;241;1273;-70
2021/08/04 03:41:23;;;;;;;;;;;23.30;54.20;;;;;;492748;241;1075;-69
2021/08/04 03:43:24;;;;;;;;;;;23.40;54.10;;;;;;492851;241;1164;-69
2021/08/04 03:45:27;;;;;;;;;;;23.40;54.00;;;;;;492861;241;967;-69
2021/08/04 03:47:28;;;;;;;;;;;23.40;54.00;;;;;;492823;241;1068;-69
2021/08/04 03:49:29;;;;;;;;;;;23.50;53.90;;;;;;492904;241;1005;-69
2021/08/04 03:51:31;;;;;;;;;;;23.40;54.00;;;;;;492838;241;2175;-69
2021/08/04 03:53:32;;;;;;;;;;;23.50;54.00;;;;;;492865;241;1064;-69
2021/08/04 03:55:33;;;;;;;;;;;23.50;53.90;;;;;;492855;241;1006;-70
2021/08/04 03:57:35;;;;;;;;;;;23.50;53.90;;;;;;492767;241;1168;-70
2021/08/04 03:59:36;;;;;;;;;;;23.50;53.90;;;;;;492813;241;1059;-70
2021/08/04 04:01:37;;;;;;;;;;;23.50;53.80;;;;;;492811;241;1045;-69
2021/08/04 04:03:39;;;;;;;;;;;23.50;53.90;;;;;;492848;241;948;-70
2021/08/04 04:05:40;;;;;;;;;;;23.40;54.10;;;;;;492852;241;1047;-70
2021/08/04 04:07:41;;;;;;;;;;;23.50;54.00;;;;;;492823;241;1138;-70
2021/08/04 04:09:43;;;;;;;;;;;23.60;53.70;;;;;;492912;241;1111;-69
2021/08/04 04:11:44;;;;;;;;;;;23.60;53.80;;;;;;492779;241;2180;-68
2021/08/04 04:13:45;;;;;;;;;;;23.60;53.70;;;;;;492912;241;1225;-69
2021/08/04 04:15:47;;;;;;;;;;;23.60;53.60;;;;;;492951;241;1059;-69
2021/08/04 04:17:48;;;;;;;;;;;23.60;53.60;;;;;;492886;241;1027;-69
2021/08/04 04:19:49;;;;;;;;;;;23.50;53.70;;;;;;493029;241;1071;-69
2021/08/04 04:21:51;;;;;;;;;;;23.50;53.70;;;;;;493028;241;1059;-69
2021/08/04 04:23:52;;;;;;;;;;;23.60;53.70;;;;;;492819;241;1002;-69
2021/08/04 04:25:53;;;;;;;;;;;23.50;53.70;;;;;;492876;241;1026;-69
2021/08/04 04:27:55;;;;;;;;;;;23.50;53.60;;;;;;492691;241;1174;-69
2021/08/04 04:29:56;;;;;;;;;;;23.50;53.70;;;;;;492967;241;936;-69
2021/08/04 04:31:57;;;;;;;;;;;23.50;53.60;;;;;;492911;241;2182;-69
2021/08/04 04:33:58;;;;;;;;;;;23.60;53.50;;;;;;492876;241;1037;-69
2021/08/04 04:36:00;;;;;;;;;;;23.60;53.50;;;;;;492830;241;1046;-69
2021/08/04 04:38:01;;;;;;;;;;;23.60;53.50;;;;;;492798;241;1118;-69
2021/08/04 04:40:02;;;;;;;;;;;23.60;53.40;;;;;;492908;241;1021;-69
2021/08/04 04:42:04;;;;;;;;;;;23.60;53.50;;;;;;492841;241;1158;-69
2021/08/04 04:44:05;;;;;;;;;;;23.60;53.50;;;;;;492810;241;1330;-69
2021/08/04 04:46:06;;;;;;;;;;;23.60;53.60;;;;;;492774;241;1064;-69
2021/08/04 04:48:08;;;;;;;;;;;23.60;53.50;;;;;;492792;242;1179;-69
2021/08/04 04:50:09;;;;;;;;;;;23.60;53.60;;;;;;493006;241;1017;-69
2021/08/04 04:52:10;;;;;;;;;;;23.50;53.60;;;;;;492738;241;2190;-69
2021/08/04 04:54:12;;;;;;;;;;;23.50;53.50;;;;;;492820;241;1308;-69
2021/08/04 04:56:13;;;;;;;;;;;23.50;53.70;;;;;;492729;241;1017;-69
2021/08/04 04:58:14;;;;;;;;;;;23.50;53.80;;;;;;492786;241;1260;-69
2021/08/04 05:00:16;;;;;;;;;;;23.50;53.80;;;;;;492738;241;985;-69
2021/08/04 05:02:17;;;;;;;;;;;23.50;53.80;;;;;;492748;241;1053;-69
2021/08/04 05:04:18;;;;;;;;;;;23.60;53.70;;;;;;492859;241;950;-69
2021/08/04 05:06:20;;;;;;;;;;;23.50;53.80;;;;;;492815;241;1066;-69
2021/08/04 05:08:21;;;;;;;;;;;23.50;53.80;;;;;;492785;241;1171;-69
2021/08/04 05:10:22;;;;;;;;;;;23.50;53.90;;;;;;492924;241;975;-69
2021/08/04 05:12:24;;;;;;;;;;;23.50;53.80;;;;;;492737;241;2124;-69
2021/08/04 05:14:25;;;;;;;;;;;23.60;53.70;;;;;;492767;241;1177;-69
2021/08/04 05:16:26;;;;;;;;;;;23.50;53.90;;;;;;492646;241;1233;-69
2021/08/04 05:18:28;;;;;;;;;;;23.50;53.80;;;;;;492654;241;970;-69
2021/08/04 05:20:30;;;;;;;;;;;23.50;53.80;;;;;;492613;241;1089;-69
2021/08/04 05:22:31;;;;;;;;;;;23.50;54.00;;;;;;492400;241;1052;-70
2021/08/04 05:24:32;;;;;;;;;;;23.50;53.80;;;;;;492541;241;1053;-70
2021/08/04 05:26:34;;;;;;;;;;;23.60;53.90;;;;;;492456;241;1037;-70
2021/08/04 05:28:35;;;;;;;;;;;23.50;54.00;;;;;;492470;241;1149;-70
2021/08/04 05:30:36;;;;;;;;;;;23.50;54.00;;;;;;492513;241;1021;-69
2021/08/04 05:32:38;;;;;;;;;;;23.40;54.10;;;;;;492605;241;2203;-69
2021/08/04 05:34:39;;;;;;;;;;;23.40;54.10;;;;;;492556;241;1007;-69
2021/08/04 05:36:40;;;;;;;;;;;23.40;54.20;;;;;;492625;241;1305;-70
2021/08/04 05:38:42;;;;;;;;;;;23.40;54.10;;;;;;492390;241;1013;-70
2021/08/04 05:40:43;;;;;;;;;;;23.40;54.10;;;;;;492416;241;1103;-69
2021/08/04 05:42:44;;;;;;;;;;;23.40;54.20;;;;;;492523;241;1072;-70
2021/08/04 05:44:46;;;;;;;;;;;23.40;54.10;;;;;;492535;241;1215;-70
2021/08/04 05:46:47;;;;;;;;;;;23.40;54.20;;;;;;492536;241;1086;-70
2021/08/04 05:48:48;;;;;;;;;;;23.40;54.30;;;;;;492376;242;1104;-70
2021/08/04 05:50:50;;;;;;;;;;;23.50;54.30;;;;;;492484;241;1007;-69
2021/08/04 05:52:51;;;;;;;;;;;23.40;54.30;;;;;;492548;241;2112;-69
2021/08/04 05:54:52;;;;;;;;;;;23.40;54.40;;;;;;492415;241;1002;-69
2021/08/04 05:56:53;;;;;;;;;;;23.40;54.40;;;;;;492534;241;1227;-69
2021/08/04 05:58:55;;;;;;;;;;;23.40;54.50;;;;;;492539;241;1146;-69
2021/08/04 06:00:56;;;;;;;;;;;23.40;54.30;;;;;;492417;241;1142;-70
2021/08/04 06:02:57;;;;;;;;;;;23.40;54.40;;;;;;492553;241;1075;-69
2021/08/04 06:04:59;;;;;;;;;;;23.30;54.50;;;;;;492453;241;1008;-69
2021/08/04 06:07:00;;;;;;;;;;;23.40;54.60;;;;;;492466;241;1210;-69
2021/08/04 06:09:01;;;;;;;;;;;23.40;54.30;;;;;;492457;241;1053;-70
2021/08/04 06:11:03;;;;;;;;;;;23.40;54.30;;;;;;492446;241;1103;-69
2021/08/04 06:13:04;;;;;;;;;;;23.50;54.30;;;;;;492346;241;2172;-69
2021/08/04 06:15:05;;;;;;;;;;;23.40;54.40;;;;;;492411;241;1216;-70
2021/08/04 06:17:07;;;;;;;;;;;23.40;54.40;;;;;;492437;241;1270;-69
2021/08/04 06:19:08;;;;;;;;;;;23.40;54.40;;;;;;492513;241;988;-70
2021/08/04 06:21:09;;;;;;;;;;;23.40;54.50;;;;;;492490;241;1145;-69
2021/08/04 06:23:11;;;;;;;;;;;23.40;54.60;;;;;;492530;241;1001;-69
2021/08/04 06:25:12;;;;;;;;;;;23.40;54.50;;;;;;492237;241;1078;-69
2021/08/04 06:27:14;;;;;;;;;;;23.50;54.30;;;;;;492410;241;968;-69
2021/08/04 06:29:15;;;;;;;;;;;23.50;54.30;;;;;;492354;241;1204;-69
2021/08/04 06:31:16;;;;;;;;;;;23.50;54.20;;;;;;492460;241;2168;-69
2021/08/04 06:33:18;;;;;;;;;;;23.50;54.20;;;;;;492289;241;976;-70
2021/08/04 06:35:19;;;;;;;;;;;23.50;54.30;;;;;;492229;241;957;-69
2021/08/04 06:37:20;;;;;;;;;;;23.50;54.30;;;;;;492305;241;967;-70
2021/08/04 06:39:22;;;;;;;;;;;23.50;54.30;;;;;;492271;241;1096;-69
2021/08/04 06:41:23;;;;;;;;;;;23.40;54.40;;;;;;492134;241;1152;-70
2021/08/04 06:43:24;;;;;;;;;;;23.30;54.60;;;;;;492200;241;1091;-69
2021/08/04 06:45:26;;;;;;;;;;;23.30;54.70;;;;;;492125;241;1211;-69
2021/08/04 06:47:27;;;;;;;;;;;23.30;54.50;;;;;;492203;241;1040;-69
2021/08/04 06:49:28;;;;;;;;;;;23.30;54.60;;;;;;492270;241;1156;-70
2021/08/04 06:51:30;;;;;;;;;;;23.30;54.60;;;;;;492183;241;2215;-70
2021/08/04 06:53:31;;;;;;;;;;;23.40;54.70;;;;;;492088;241;1264;-70
2021/08/04 06:55:33;;;;;;;;;;;23.30;54.60;;;;;;491916;241;1165;-70
2021/08/04 06:57:34;;;;;;;;;;;23.30;54.60;;;;;;491817;241;1091;-70
2021/08/04 06:59:35;;;;;;;;;;;23.40;54.40;;;;;;491864;241;1157;-69
2021/08/04 07:01:37;;;;;;;;;;;23.50;54.30;;;;;;491909;241;1041;-69
2021/08/04 07:03:38;;;;;;;;;;;23.50;54.20;;;;;;491520;241;1052;-70
2021/08/04 07:05:40;;;;;;;;;;;23.60;54.10;;;;;;491709;241;981;-70
2021/08/04 07:07:41;;;;;;;;;;;23.50;54.10;;;;;;491915;241;1072;-70
2021/08/04 07:09:42;;;;;;;;;;;23.60;54.00;;;;;;492062;241;1164;-70
2021/08/04 07:11:44;;;;;;;;;;;23.60;53.90;;;;;;491867;241;2143;-70
2021/08/04 07:13:45;;;;;;;;;;;23.60;53.70;;;;;;491837;241;1017;-70
2021/08/04 07:15:46;;;;;;;;;;;23.60;53.80;;;;;;491747;241;1121;-70
2021/08/04 07:17:48;;;;;;;;;;;23.60;53.70;;;;;;491606;241;1073;-70
2021/08/04 07:19:49;;;;;;;;;;;23.70;53.60;;;;;;491676;241;1048;-69
2021/08/04 07:21:50;;;;;;;;;;;23.70;53.40;;;;;;491612;241;1172;-69
2021/08/04 07:23:51;;;;;;;;;;;23.70;53.30;;;;;;491809;241;1057;-70
2021/08/04 07:25:53;;;;;;;;;;;23.70;53.30;;;;;;491687;241;1062;-70
2021/08/04 07:27:54;;;;;;;;;;;23.70;53.40;;;;;;491767;241;1178;-70
2021/08/04 07:29:56;;;;;;;;;;;23.70;53.40;;;;;;491713;241;1160;-69
2021/08/04 07:31:57;;;;;;;;;;;23.70;53.20;;;;;;491762;241;2191;-70
2021/08/04 07:33:58;;;;;;;;;;;23.70;53.20;;;;;;491945;241;1101;-70
2021/08/04 07:36:00;;;;;;;;;;;23.70;53.00;;;;;;491942;241;1049;-70
2021/08/04 07:38:01;;;;;;;;;;;23.60;53.00;;;;;;491910;241;1125;-70
2021/08/04 07:40:02;;;;;;;;;;;23.60;52.90;;;;;;491968;242;1091;-70
2021/08/04 07:42:04;;;;;;;;;;;23.60;52.90;;;;;;491937;241;1062;-70
2021/08/04 07:44:05;;;;;;;;;;;23.70;53.00;;;;;;491986;241;1144;-69
2021/08/04 07:46:06;;;;;;;;;;;23.70;52.90;;;;;;492013;241;1385;-70
2021/08/04 07:48:08;;;;;;;;;;;23.70;52.80;;;;;;491790;241;1047;-69
2021/08/04 07:50:09;;;;;;;;;;;23.80;52.60;;;;;;491593;241;1003;-69
2021/08/04 07:52:10;;;;;;;;;;;23.70;52.70;;;;;;491855;241;2187;-69
2021/08/04 07:54:12;;;;;;;;;;;23.70;52.60;;;;;;491887;241;1081;-69
2021/08/04 07:56:19;;;;;;;;;;;23.60;52.70;;;;;;491598;241;1198;-69
2021/08/04 07:58:15;;;;;;;;;;;23.60;52.70;;;;;;491391;242;1317;-69
2021/08/04 08:00:16;;;;;;;;;;;23.70;52.70;;;;;;491929;241;1061;-69
2021/08/04 08:02:17;;;;;;;;;;;23.70;52.60;;;;;;492138;241;1080;-70
2021/08/04 08:04:19;;;;;;;;;;;23.70;52.60;;;;;;492022;241;1073;-69
2021/08/04 08:06:20;;;;;;;;;;;23.60;52.70;;;;;;492193;241;1309;-70
2021/08/04 08:08:21;;;;;;;;;;;23.60;52.80;;;;;;492293;241;1107;-70
2021/08/04 08:10:25;;;;;;;;;;;23.60;52.80;;;;;;492210;241;990;-70
2021/08/04 08:12:24;;;;;;;;;;;23.70;52.80;;;;;;492118;242;2203;-70
2021/08/04 08:14:25;;;;;;;;;;;23.70;52.70;;;;;;492194;241;1095;-70
2021/08/04 08:16:27;;;;;;;;;;;23.70;52.60;;;;;;492249;241;1198;-70
2021/08/04 08:18:28;;;;;;;;;;;23.80;52.50;;;;;;492072;241;1055;-69
2021/08/04 08:20:29;;;;;;;;;;;23.70;52.60;;;;;;491752;241;1057;-70
2021/08/04 08:22:31;;;;;;;;;;;23.70;52.40;;;;;;491945;241;1265;-70
2021/08/04 08:24:32;;;;;;;;;;;23.70;52.30;;;;;;491795;241;1045;-69
2021/08/04 08:26:34;;;;;;;;;;;23.70;52.30;;;;;;491856;241;1173;-70
2021/08/04 08:28:35;;;;;;;;;;;23.70;52.30;;;;;;491804;241;1141;-69
2021/08/04 08:30:36;;;;;;;;;;;23.80;52.20;;;;;;491916;241;1258;-70
2021/08/04 08:32:38;;;;;;;;;;;23.70;52.30;;;;;;491852;241;2184;-70
2021/08/04 08:34:39;;;;;;;;;;;23.70;52.30;;;;;;491934;241;1310;-70
2021/08/04 08:36:40;;;;;;;;;;;23.70;52.20;;;;;;491921;241;1105;-70
2021/08/04 08:38:42;;;;;;;;;;;23.80;52.20;;;;;;492057;241;1198;-70
2021/08/04 08:40:43;;;;;;;;;;;23.70;52.10;;;;;;492023;241;1156;-70
2021/08/04 08:42:44;;;;;;;;;;;23.70;52.30;;;;;;492135;241;1082;-70
2021/08/04 08:44:46;;;;;;;;;;;23.60;52.20;;;;;;491831;241;1115;-70
2021/08/04 08:46:47;;;;;;;;;;;23.70;52.10;;;;;;491922;241;1150;-69
2021/08/04 08:48:48;;;;;;;;;;;23.70;52.20;;;;;;491933;241;1087;-69
2021/08/04 08:50:50;;;;;;;;;;;23.70;52.10;;;;;;492005;241;957;-70
2021/08/04 08:52:51;;;;;;;;;;;23.70;52.10;;;;;;492003;241;2187;-70
2021/08/04 08:54:52;;;;;;;;;;;23.70;52.00;;;;;;491813;241;1120;-70
2021/08/04 08:56:53;;;;;;;;;;;23.70;52.20;;;;;;492118;241;1225;-70
2021/08/04 08:58:55;;;;;;;;;;;23.60;52.40;;;;;;491895;241;1205;-70
2021/08/04 09:00:56;;;;;;;;;;;23.50;52.50;;;;;;491870;241;1195;-70
2021/08/04 09:02:57;;;;;;;;;;;23.60;52.50;;;;;;491873;241;1081;-70
2021/08/04 09:04:59;;;;;;;;;;;23.90;51.60;;;;;;491955;241;1104;-70
2021/08/04 09:07:01;;;;;;;;;;;23.80;52.00;;;;;;492021;241;1191;-70
2021/08/04 09:09:02;;;;;;;;;;;23.70;52.20;;;;;;492030;241;1060;-70
2021/08/04 09:11:03;;;;;;;;;;;23.60;52.30;;;;;;492027;238;1195;-70
2021/08/04 09:13:05;;;;;;;;;;;23.60;52.30;;;;;;492021;241;2254;-70
2021/08/04 09:15:06;;;;;;;;;;;23.60;52.50;;;;;;492071;241;1043;-70
2021/08/04 09:17:07;;;;;;;;;;;23.40;52.60;;;;;;491950;241;1136;-70
2021/08/04 09:19:08;;;;;;;;;;;23.50;52.70;;;;;;491936;241;1041;-70
2021/08/04 09:21:10;;;;;;;;;;;23.40;52.80;;;;;;491889;241;1183;-70
2021/08/04 09:23:11;;;;;;;;;;;23.40;52.80;;;;;;492069;241;1151;-70
2021/08/04 09:25:14;;;;;;;;;;;23.40;52.70;;;;;;492091;241;1124;-70
2021/08/04 09:27:14;;;;;;;;;;;23.40;52.70;;;;;;491922;242;1382;-70
2021/08/04 09:29:15;;;;;;;;;;;23.50;52.80;;;;;;492088;241;1111;-70
2021/08/04 09:31:17;;;;;;;;;;;23.50;52.80;;;;;;492098;241;1234;-70
2021/08/04 09:33:19;;;;;;;;;;;23.50;52.70;;;;;;492213;241;2215;-70
2021/08/04 09:35:19;;;;;;;;;;;23.50;52.60;;;;;;492123;241;1329;-70
2021/08/04 09:37:21;;;;;;;;;;;23.60;52.50;;;;;;492306;241;1245;-70
2021/08/04 09:39:22;;;;;;;;;;;23.70;52.30;;;;;;492058;241;1214;-70
2021/08/04 09:41:24;;;;;;;;;;;23.70;52.30;;;;;;492136;241;1527;-70
2021/08/04 09:43:25;;;;;;;;;;;23.70;52.30;;;;;;492044;241;1341;-70
2021/08/04 09:45:26;;;;;;;;;;;23.70;52.30;;;;;;492125;241;1287;-70
2021/08/04 09:47:28;;;;;;;;;;;23.70;52.20;;;;;;492020;241;1282;-70
2021/08/04 09:49:29;;;;;;;;;;;23.70;52.20;;;;;;492071;241;1124;-70
2021/08/04 09:51:30;;;;;;;;;;;23.70;52.20;;;;;;491997;238;1266;-70
2021/08/04 09:53:32;;;;;;;;;;;23.70;52.30;;;;;;492072;241;2179;-70
2021/08/04 09:55:33;;;;;;;;;;;23.70;52.10;;;;;;492081;241;1078;-70
2021/08/04 09:57:34;;;;;;;;;;;23.70;52.10;;;;;;492139;241;1166;-70
2021/08/04 09:59:36;;;;;;;;;;;23.70;52.10;;;;;;492146;241;1225;-70
2021/08/04 10:01:37;;;;;;;;;;;23.70;52.10;;;;;;492182;241;1193;-70
2021/08/04 10:03:38;;;;;;;;;;;23.70;52.10;;;;;;492112;241;1118;-70
2021/08/04 10:05:39;;;;;;;;;;;23.80;52.10;;;;;;492193;241;1193;-70
2021/08/04 10:07:41;;;;;;;;;;;23.80;52.10;;;;;;492067;241;1106;-70
2021/08/04 10:09:43;;;;;;;;;;;23.70;52.10;;;;;;492137;241;1134;-70
2021/08/04 10:11:43;;;;;;;;;;;23.70;52.20;;;;;;492157;241;1101;-70
2021/08/04 10:13:45;;;;;;;;;;;23.70;52.20;;;;;;492052;241;2187;-70
2021/08/04 10:15:46;;;;;;;;;;;23.70;52.20;;;;;;491970;241;1116;-70
2021/08/04 10:17:47;;;;;;;;;;;23.70;52.10;;;;;;492010;241;1187;-70
2021/08/04 10:19:49;;;;;;;;;;;23.70;52.20;;;;;;491898;241;1084;-70
2021/08/04 10:21:50;;;;;;;;;;;23.80;52.10;;;;;;491978;241;1102;-70
2021/08/04 10:23:51;;;;;;;;;;;23.80;52.20;;;;;;492134;241;1106;-70
2021/08/04 10:25:53;;;;;;;;;;;23.70;52.10;;;;;;492086;241;1219;-69
2021/08/04 10:27:54;;;;;;;;;;;23.80;52.10;;;;;;491915;241;1081;-70
2021/08/04 10:29:55;;;;;;;;;;;23.80;52.20;;;;;;491853;241;1139;-70
2021/08/04 10:31:57;;;;;;;;;;;23.80;52.20;;;;;;491765;241;1226;-70
2021/08/04 10:33:58;;;;;;;;;;;23.80;52.10;;;;;;491912;241;2183;-70
2021/08/04 10:36:00;;;;;;;;;;;23.70;52.30;;;;;;491926;241;1132;-70
2021/08/04 10:38:01;;;;;;;;;;;23.70;52.20;;;;;;491771;241;1213;-70
2021/08/04 10:40:02;;;;;;;;;;;23.80;52.20;;;;;;491579;241;1023;-70
2021/08/04 10:42:04;;;;;;;;;;;23.70;52.20;;;;;;491595;241;1094;-70
2021/08/04 10:44:05;;;;;;;;;;;23.80;52.20;;;;;;491648;241;1139;-70
2021/08/04 10:46:06;;;;;;;;;;;23.80;52.20;;;;;;491631;241;1170;-70
2021/08/04 10:48:08;;;;;;;;;;;23.80;52.30;;;;;;491582;241;1232;-70
2021/08/04 10:50:09;;;;;;;;;;;23.70;52.30;;;;;;491530;241;1115;-70
2021/08/04 10:52:10;;;;;;;;;;;23.70;52.30;;;;;;491473;241;1187;-70
2021/08/04 10:54:18;;;;;;;;;;;23.70;52.30;;;;;;491593;241;2175;-70
2021/08/04 10:56:19;;;;;;;;;;;23.80;52.30;;;;;;491524;241;1190;-70
2021/08/04 10:58:20;;;;;;;;;;;23.80;52.20;;;;;;491532;241;1092;-70
2021/08/04 11:00:22;;;;;;;;;;;23.80;52.30;;;;;;491641;241;1096;-70
2021/08/04 11:02:23;;;;;;;;;;;23.80;52.30;;;;;;491655;241;1341;-70
2021/08/04 11:04:24;;;;;;;;;;;23.80;52.30;;;;;;491763;241;1107;-70
2021/08/04 11:06:26;;;;;;;;;;;23.80;52.20;;;;;;491670;241;1437;-70
2021/08/04 11:08:27;;;;;;;;;;;23.80;52.20;;;;;;491839;241;1038;-70
2021/08/04 11:10:28;;;;;;;;;;;23.80;52.20;;;;;;491766;241;1211;-69
2021/08/04 11:12:30;;;;;;;;;;;23.80;52.20;;;;;;491855;241;1365;-70
2021/08/04 11:14:31;;;;;;;;;;;23.80;52.20;;;;;;491859;241;2143;-70
2021/08/04 11:16:32;;;;;;;;;;;23.70;52.20;;;;;;491829;241;1269;-70
2021/08/04 11:18:33;;;;;;;;;;;23.70;52.40;;;;;;491782;241;1277;-70
2021/08/04 11:20:35;;;;;;;;;;;23.80;52.20;;;;;;491593;241;1043;-70
2021/08/04 11:22:36;;;;;;;;;;;23.80;52.10;;;;;;491699;242;1275;-70
2021/08/04 11:24:37;;;;;;;;;;;23.70;52.10;;;;;;491759;241;1079;-70
2021/08/04 11:26:39;;;;;;;;;;;23.80;52.00;;;;;;491709;241;1127;-70
2021/08/04 11:28:40;;;;;;;;;;;23.80;51.90;;;;;;491757;241;1133;-70
2021/08/04 11:30:42;;;;;;;;;;;23.80;52.00;;;;;;491819;241;1108;-70
2021/08/04 11:32:43;;;;;;;;;;;23.80;52.00;;;;;;491667;241;1210;-70
2021/08/04 11:34:44;;;;;;;;;;;23.80;52.00;;;;;;491720;241;2421;-70
2021/08/04 11:36:45;;;;;;;;;;;23.80;52.00;;;;;;491779;241;1194;-70
2021/08/04 11:38:47;;;;;;;;;;;23.80;51.90;;;;;;491819;241;1064;-71
2021/08/04 11:40:48;;;;;;;;;;;23.80;51.90;;;;;;491731;241;1082;-70
2021/08/04 11:42:49;;;;;;;;;;;23.80;51.80;;;;;;491754;241;1304;-70
2021/08/04 11:44:51;;;;;;;;;;;23.80;51.80;;;;;;491817;241;1091;-70
2021/08/04 11:46:53;;;;;;;;;;;23.80;51.90;;;;;;491669;241;1189;-70
2021/08/04 11:48:54;;;;;;;;;;;23.80;51.90;;;;;;491916;241;1434;-69
2021/08/04 11:50:55;;;;;;;;;;;23.80;51.80;;;;;;491609;241;1098;-70
2021/08/04 11:52:57;;;;;;;;;;;23.80;51.80;;;;;;491487;241;1106;-69
2021/08/04 11:54:58;;;;;;;;;;;23.80;51.80;;;;;;491564;241;2196;-69
2021/08/04 11:56:59;;;;;;;;;;;23.80;51.80;;;;;;491744;238;1121;-70